createdAt,value
2022-11-28T00:01:42.597Z,19.73
2022-11-28T00:06:48.111Z,21.65
2022-11-28T00:11:51.829Z,22.23
2022-11-28T00:16:46.871Z,23.08
2022-11-28T00:21:44.097Z,25.93
2022-11-28T00:26:41.639Z,23.55
2022-11-28T00:31:47.052Z,26.20
2022-11-28T00:36:43.488Z,28.88
2022-11-28T00:41:37.226Z,27.77
2022-11-28T00:46:32.207Z,26.43
2022-11-28T00:51:33.506Z,28.30
2022-11-28T00:56:41.104Z,29.38
2022-11-28T01:01:48.097Z,26.98
2022-11-28T01:06:46.648Z,27.80
2022-11-28T01:11:49.560Z,28.30
2022-11-28T01:16:41.753Z,28.35
2022-11-28T01:21:34.398Z,25.10
2022-11-28T01:26:28.760Z,27.90
2022-11-28T01:31:29.101Z,27.50
2022-11-28T01:36:28.468Z,25.58
2022-11-28T01:41:27.785Z,23.98
2022-11-28T01:46:20.202Z,23.20
2022-11-28T01:51:23.800Z,22.83
2022-11-28T01:56:20.779Z,21.20
2022-11-28T02:01:16.693Z,19.90
2022-11-28T02:06:14.466Z,18.95
2022-11-28T02:11:39.368Z,15.73
2022-11-28T02:17:01.145Z,18.08
2022-11-28T02:22:11.342Z,19.57
2022-11-28T02:27:55.351Z,22.75
2022-11-28T02:33:19.584Z,19.48
2022-11-28T02:38:27.909Z,19.60
2022-11-28T02:43:36.665Z,17.13
2022-11-28T02:48:46.966Z,18.03
2022-11-28T02:53:48.929Z,21.73
2022-11-28T02:58:52.579Z,20.52
2022-11-28T03:04:26.330Z,23.00
2022-11-28T03:09:45.123Z,23.73
2022-11-28T03:14:53.086Z,23.25
2022-11-28T03:20:01.297Z,22.47
2022-11-28T03:25:09.146Z,22.60
2022-11-28T03:30:11.641Z,22.93
2022-11-28T03:35:13.837Z,23.00
2022-11-28T03:40:14.140Z,25.57
2022-11-28T03:45:13.251Z,23.73
2022-11-28T03:50:20.643Z,23.48
2022-11-28T03:55:27.011Z,27.35
2022-11-28T04:00:29.716Z,28.25
2022-11-28T04:05:31.124Z,30.90
2022-11-28T04:10:32.246Z,35.10
2022-11-28T04:15:41.518Z,33.05
2022-11-28T04:20:42.400Z,33.57
2022-11-28T04:25:38.779Z,35.08
2022-11-28T04:30:40.325Z,35.15
2022-11-28T04:35:46.345Z,34.77
2022-11-28T04:41:06.528Z,36.13
2022-11-28T04:46:07.315Z,35.65
2022-11-28T04:51:21.517Z,37.00
2022-11-28T04:56:21.958Z,40.67
2022-11-28T05:01:23.982Z,41.08
2022-11-28T05:06:29.982Z,41.13
2022-11-28T05:11:23.965Z,42.20
2022-11-28T05:16:22.136Z,43.63
2022-11-28T05:21:21.838Z,47.42
2022-11-28T05:26:19.122Z,48.93
2022-11-28T05:31:24.250Z,50.17
2022-11-28T05:36:25.128Z,51.08
2022-11-28T05:41:30.784Z,52.25
2022-11-28T05:46:27.071Z,55.53
2022-11-28T05:51:22.984Z,55.25
2022-11-28T05:56:21.123Z,57.17
2022-11-28T06:01:30.380Z,59.77
2022-11-28T06:06:23.836Z,63.45
2022-11-28T06:11:15.939Z,65.25
2022-11-28T06:16:12.963Z,70.15
2022-11-28T06:21:09.934Z,73.10
2022-11-28T06:26:07.421Z,79.72
2022-11-28T06:30:59.386Z,77.18
2022-11-28T06:35:53.240Z,85.32
2022-11-28T06:40:51.495Z,88.75
2022-11-28T06:45:48.068Z,94.68
2022-11-28T06:50:42.279Z,90.43
2022-11-28T06:55:37.741Z,94.82
2022-11-28T07:00:35.018Z,93.37
2022-11-28T07:05:28.475Z,89.07
2022-11-28T07:10:49.158Z,91.60
2022-11-28T07:15:54.707Z,93.43
2022-11-28T07:20:45.125Z,101.00
2022-11-28T07:25:43.858Z,109.07
2022-11-28T07:30:38.231Z,109.53
2022-11-28T07:35:36.593Z,119.47
2022-11-28T07:40:33.717Z,117.65
2022-11-28T07:45:47.137Z,125.28
2022-11-28T07:50:45.873Z,128.50
2022-11-28T07:55:45.629Z,133.57
2022-11-28T08:00:38.321Z,136.18
2022-11-28T08:05:29.412Z,132.55
2022-11-28T08:10:27.259Z,137.20
2022-11-28T08:15:32.796Z,123.40
2022-11-28T08:20:24.763Z,118.15
2022-11-28T08:25:19.867Z,107.00
2022-11-28T08:30:15.524Z,105.78
2022-11-28T08:35:17.893Z,95.63
2022-11-28T08:40:21.123Z,85.33
2022-11-28T08:45:18.658Z,85.00
2022-11-28T08:50:16.591Z,66.87
2022-11-28T08:55:40.489Z,63.58
2022-11-28T09:00:43.688Z,61.60
2022-11-28T09:05:39.120Z,55.38
2022-11-28T09:10:34.249Z,61.20
2022-11-28T09:15:25.887Z,52.30
2022-11-28T09:20:27.003Z,55.50
2022-11-28T09:25:24.339Z,62.13
2022-11-28T09:30:32.784Z,68.30
2022-11-28T09:35:29.892Z,68.65
2022-11-28T09:40:37.053Z,69.10
2022-11-28T09:45:34.134Z,72.57
2022-11-28T09:50:36.689Z,74.25
2022-11-28T09:55:38.992Z,70.28
2022-11-28T10:00:43.042Z,75.87
2022-11-28T10:05:51.068Z,84.00
2022-11-28T10:10:57.444Z,83.95
2022-11-28T10:15:59.452Z,82.03
2022-11-28T10:21:10.160Z,81.10
2022-11-28T10:26:17.518Z,80.15
2022-11-28T10:31:15.138Z,82.18
2022-11-28T10:36:27.449Z,83.38
2022-11-28T10:41:36.584Z,89.63
2022-11-28T10:46:54.215Z,84.77
2022-11-28T10:52:05.423Z,93.10
2022-11-28T10:57:07.206Z,83.25
2022-11-28T11:01:58.778Z,89.85
2022-11-28T11:07:10.601Z,85.07
2022-11-28T11:12:34.463Z,87.65
2022-11-28T11:17:38.585Z,82.65
2022-11-28T11:22:58.010Z,81.57
2022-11-28T11:27:56.796Z,81.43
2022-11-28T11:32:54.484Z,77.80
2022-11-28T11:37:58.622Z,79.88
2022-11-28T11:43:15.891Z,80.57
2022-11-28T11:48:16.538Z,74.07
2022-11-28T11:53:20.855Z,74.88
2022-11-28T11:58:23.651Z,79.83
2022-11-28T12:03:24.912Z,68.20
2022-11-28T12:08:35.735Z,65.87
2022-11-28T12:13:37.375Z,76.63
2022-11-28T12:18:44.615Z,70.40
2022-11-28T12:24:01.000Z,67.70
2022-11-28T12:29:11.654Z,61.25
2022-11-28T12:34:21.248Z,68.88
2022-11-28T12:39:33.235Z,66.32
2022-11-28T12:44:40.071Z,57.05
2022-11-28T12:49:42.647Z,53.87
2022-11-28T12:55:07.938Z,50.25
2022-11-28T13:00:08.956Z,51.40
2022-11-28T13:05:36.400Z,51.13
2022-11-28T13:10:47.808Z,50.40
2022-11-28T13:15:50.669Z,51.47
2022-11-28T13:21:03.451Z,49.60
2022-11-28T13:26:16.001Z,48.03
2022-11-28T13:31:26.758Z,45.17
2022-11-28T13:42:21.263Z,47.33
2022-11-28T13:47:31.314Z,48.57
2022-11-28T13:52:49.007Z,43.72
2022-11-28T13:57:47.521Z,44.28
2022-11-28T14:02:49.722Z,41.67
2022-11-28T14:07:55.657Z,41.75
2022-11-28T14:13:10.093Z,45.30
2022-11-28T14:24:04.054Z,36.78
2022-11-28T14:29:09.364Z,37.25
2022-11-28T14:34:06.914Z,39.50
2022-11-28T14:44:51.242Z,37.20
2022-11-28T14:49:49.264Z,34.78
2022-11-28T14:54:49.100Z,38.88
2022-11-28T14:59:52.324Z,34.42
2022-11-28T15:05:03.971Z,35.17
2022-11-28T15:10:08.529Z,33.80
2022-11-28T15:15:03.151Z,32.87
2022-11-28T15:20:08.092Z,31.67
2022-11-28T15:24:58.854Z,32.27
2022-11-28T15:30:00.398Z,38.10
2022-11-28T15:35:16.820Z,36.50
2022-11-28T15:40:25.060Z,37.58
2022-11-28T15:45:26.521Z,33.08
2022-11-28T15:50:25.789Z,36.17
2022-11-28T15:55:20.417Z,40.63
2022-11-28T16:00:26.198Z,35.73
2022-11-28T16:05:25.951Z,43.17
2022-11-28T16:10:31.087Z,37.38
2022-11-28T16:15:23.392Z,36.53
2022-11-28T16:20:28.650Z,42.93
2022-11-28T16:25:37.185Z,39.75
2022-11-28T16:30:38.987Z,44.10
2022-11-28T16:35:42.495Z,49.08
2022-11-28T16:40:35.373Z,55.08
2022-11-28T16:45:31.524Z,55.80
2022-11-28T16:50:30.833Z,61.63
2022-11-28T16:55:50.636Z,65.05
2022-11-28T17:00:56.097Z,72.20
2022-11-28T17:05:54.983Z,78.20
2022-11-28T17:10:57.163Z,73.82
2022-11-28T17:15:51.665Z,73.27
2022-11-28T17:20:57.336Z,76.55
2022-11-28T17:25:52.897Z,82.85
2022-11-28T17:30:45.207Z,73.78
2022-11-28T17:35:45.487Z,73.63
2022-11-28T17:40:39.234Z,69.43
2022-11-28T17:45:46.360Z,70.85
2022-11-28T17:50:42.595Z,72.78
2022-11-28T17:55:45.522Z,69.65
2022-11-28T18:00:40.738Z,68.63
2022-11-28T18:05:35.022Z,68.47
2022-11-28T18:10:33.820Z,71.22
2022-11-28T18:15:32.424Z,71.72
2022-11-28T18:20:29.095Z,75.25
2022-11-28T18:25:26.362Z,73.35
2022-11-28T18:30:23.261Z,73.53
2022-11-28T18:35:21.791Z,71.20
2022-11-28T18:40:20.891Z,71.22
2022-11-28T18:45:17.997Z,66.63
2022-11-28T18:50:13.749Z,67.93
2022-11-28T18:55:09.544Z,61.38
2022-11-28T19:00:05.008Z,64.90
2022-11-28T19:04:59.088Z,68.65
2022-11-28T19:09:51.306Z,65.87
2022-11-28T19:14:48.440Z,69.22
2022-11-28T19:19:45.898Z,76.93
2022-11-28T19:24:40.288Z,75.53
2022-11-28T19:29:33.033Z,68.75
2022-11-28T19:34:26.608Z,71.53
2022-11-28T19:39:27.245Z,70.00
2022-11-28T19:44:19.501Z,69.93
2022-11-28T19:49:18.148Z,75.17
2022-11-28T19:54:12.773Z,69.38
2022-11-28T19:59:10.811Z,69.03
2022-11-28T20:04:09.910Z,72.45
2022-11-28T20:09:10.213Z,70.85
2022-11-28T20:14:16.659Z,71.53
2022-11-28T20:19:11.803Z,59.83
2022-11-28T20:24:08.170Z,68.07
2022-11-28T20:28:58.709Z,67.40
2022-11-28T20:34:04.130Z,63.15
2022-11-28T20:38:58.705Z,60.88
2022-11-28T20:43:55.135Z,65.90
2022-11-28T20:49:14.244Z,61.40
2022-11-28T20:54:07.928Z,53.33
2022-11-28T20:59:03.285Z,54.38
2022-11-28T21:04:15.911Z,62.28
2022-11-28T21:09:17.649Z,57.28
2022-11-28T21:14:12.347Z,45.92
2022-11-28T21:19:14.487Z,50.50
2022-11-28T21:24:09.276Z,53.70
2022-11-28T21:29:06.203Z,51.03
2022-11-28T21:34:04.417Z,47.85
2022-11-28T21:38:58.638Z,46.38
2022-11-28T21:43:52.639Z,47.85
2022-11-28T21:48:45.581Z,43.08
2022-11-28T21:53:40.188Z,42.57
2022-11-28T21:58:40.494Z,37.90
2022-11-28T22:03:35.847Z,42.25
2022-11-28T22:08:26.243Z,43.03
2022-11-28T22:13:24.231Z,38.58
2022-11-28T22:18:26.185Z,48.10
2022-11-28T22:23:19.208Z,50.35
2022-11-28T22:28:30.419Z,43.57
2022-11-28T22:33:29.466Z,42.95
2022-11-28T22:38:24.965Z,40.25
2022-11-28T22:43:28.806Z,44.13
2022-11-28T22:48:40.646Z,46.13
2022-11-28T22:53:42.474Z,46.40
2022-11-28T22:58:36.833Z,41.80
2022-11-28T23:03:38.431Z,39.90
2022-11-28T23:08:36.629Z,42.10
2022-11-28T23:13:31.006Z,44.17
2022-11-28T23:18:35.424Z,39.73
2022-11-28T23:23:42.699Z,36.63
2022-11-28T23:28:36.650Z,50.80
2022-11-28T23:33:26.692Z,46.63
2022-11-28T23:38:22.994Z,49.75
2022-11-28T23:43:20.715Z,51.25
2022-11-28T23:48:35.018Z,51.08
2022-11-28T23:53:27.108Z,55.85
2022-11-28T23:58:30.571Z,47.85
